createdAt,value
2023-11-09T00:00:38.734Z,59.89
2023-11-09T00:03:07.074Z,59.84
2023-11-09T00:05:34.334Z,59.83
2023-11-09T00:08:01.621Z,59.82
2023-11-09T00:10:28.610Z,59.95
2023-11-09T00:12:59.656Z,59.70
2023-11-09T00:15:27.772Z,59.96
2023-11-09T00:17:55.053Z,59.86
2023-11-09T00:20:22.962Z,59.73
2023-11-09T00:25:19.662Z,59.66
2023-11-09T00:27:46.634Z,59.40
2023-11-09T00:30:13.790Z,59.74
2023-11-09T00:32:40.677Z,59.48
2023-11-09T00:35:09.890Z,59.31
2023-11-09T00:37:38.712Z,59.52
2023-11-09T00:40:12.643Z,59.42
2023-11-09T00:42:40.112Z,59.32
2023-11-09T00:45:08.221Z,59.64
2023-11-09T00:47:35.828Z,59.89
2023-11-09T00:50:02.775Z,59.70
2023-11-09T00:52:29.883Z,59.74
2023-11-09T00:54:56.987Z,59.82
2023-11-09T00:57:26.808Z,60.18
2023-11-09T00:59:53.660Z,59.94
2023-11-09T01:02:20.454Z,59.94
2023-11-09T01:04:47.382Z,60.08
2023-11-09T01:07:14.306Z,60.10
2023-11-09T01:09:41.316Z,60.50
2023-11-09T01:12:09.188Z,59.95
2023-11-09T01:14:36.138Z,59.85
2023-11-09T01:17:03.077Z,59.97
2023-11-09T01:19:30.108Z,60.07
2023-11-09T01:21:57.227Z,59.85
2023-11-09T01:24:24.107Z,59.66
2023-11-09T01:26:50.995Z,59.45
2023-11-09T01:29:19.984Z,59.52
2023-11-09T01:31:46.858Z,59.34
2023-11-09T01:34:15.605Z,59.68
2023-11-09T01:36:43.692Z,59.38
2023-11-09T01:39:14.024Z,59.28
2023-11-09T01:41:43.628Z,59.23
2023-11-09T01:44:11.189Z,59.50
2023-11-09T01:46:43.019Z,59.48
2023-11-09T01:49:11.938Z,59.60
2023-11-09T01:51:40.368Z,59.69
2023-11-09T01:54:08.639Z,59.84
2023-11-09T01:56:36.718Z,59.74
2023-11-09T01:59:06.960Z,59.47
2023-11-09T02:01:35.207Z,59.54
2023-11-09T02:04:03.104Z,59.53
2023-11-09T02:06:30.920Z,59.43
2023-11-09T02:08:59.568Z,59.75
2023-11-09T02:11:26.807Z,59.54
2023-11-09T02:13:54.257Z,59.60
2023-11-09T02:16:21.634Z,60.07
2023-11-09T02:18:48.918Z,60.41
2023-11-09T02:21:18.787Z,60.13
2023-11-09T02:23:49.428Z,60.42
2023-11-09T02:26:17.372Z,60.40
2023-11-09T02:28:50.469Z,60.51
2023-11-09T02:31:18.957Z,60.55
2023-11-09T02:33:45.908Z,60.50
2023-11-09T02:36:12.928Z,60.20
2023-11-09T02:38:39.808Z,59.93
2023-11-09T02:41:09.344Z,60.03
2023-11-09T02:43:41.492Z,59.47
2023-11-09T02:46:11.577Z,59.46
2023-11-09T02:48:39.448Z,59.19
2023-11-09T02:51:10.399Z,59.29
2023-11-09T02:53:38.563Z,59.09
2023-11-09T02:56:09.208Z,59.00
2023-11-09T02:58:36.171Z,58.61
2023-11-09T03:01:03.117Z,58.72
2023-11-09T03:03:30.258Z,58.52
2023-11-09T03:05:58.505Z,58.58
2023-11-09T03:08:28.006Z,58.42
2023-11-09T03:10:55.251Z,58.45
2023-11-09T03:13:22.951Z,58.57
2023-11-09T03:15:50.866Z,58.54
2023-11-09T03:18:18.639Z,58.62
2023-11-09T03:20:45.554Z,58.86
2023-11-09T03:23:13.146Z,58.92
2023-11-09T03:25:39.940Z,58.87
2023-11-09T03:28:06.866Z,58.91
2023-11-09T03:30:35.261Z,58.73
2023-11-09T03:33:02.577Z,58.88
2023-11-09T03:35:29.402Z,58.90
2023-11-09T03:37:56.207Z,58.93
2023-11-09T03:40:23.189Z,58.85
2023-11-09T03:42:49.984Z,58.62
2023-11-09T03:45:16.909Z,58.41
2023-11-09T03:47:44.427Z,58.76
2023-11-09T03:50:14.371Z,58.55
2023-11-09T03:52:41.417Z,58.80
2023-11-09T03:55:09.231Z,58.82
2023-11-09T03:57:37.100Z,58.65
2023-11-09T04:00:09.633Z,58.79
2023-11-09T04:02:40.449Z,58.59
2023-11-09T04:05:10.925Z,58.40
2023-11-09T04:07:45.891Z,58.40
2023-11-09T04:10:15.482Z,58.27
2023-11-09T04:12:43.729Z,58.25
2023-11-09T04:15:10.790Z,58.02
2023-11-09T04:17:38.020Z,58.23
2023-11-09T04:20:08.067Z,58.07
2023-11-09T04:22:35.576Z,58.27
2023-11-09T04:25:03.308Z,58.10
2023-11-09T04:27:30.552Z,58.46
2023-11-09T04:29:59.421Z,58.84
2023-11-09T04:32:27.222Z,59.31
2023-11-09T04:34:54.558Z,60.38
2023-11-09T04:37:23.247Z,61.99
2023-11-09T04:39:53.274Z,63.67
2023-11-09T04:42:20.938Z,65.42
2023-11-09T04:44:48.114Z,66.09
2023-11-09T04:47:15.990Z,66.65
2023-11-09T04:49:51.170Z,66.87
2023-11-09T04:52:20.643Z,67.62
2023-11-09T04:54:57.952Z,67.84
2023-11-09T04:57:49.389Z,68.19
2023-11-09T05:00:35.085Z,68.36
2023-11-09T05:03:20.416Z,65.93
2023-11-09T05:06:10.113Z,65.39
2023-11-09T05:08:37.321Z,65.38
2023-11-09T05:11:04.898Z,65.53
2023-11-09T05:13:31.892Z,65.40
2023-11-09T05:15:58.860Z,65.19
2023-11-09T05:18:26.228Z,64.28
2023-11-09T05:20:53.510Z,63.05
2023-11-09T05:23:20.396Z,62.94
2023-11-09T05:25:47.246Z,62.99
2023-11-09T05:28:14.110Z,62.34
2023-11-09T05:30:40.892Z,63.74
2023-11-09T05:33:07.679Z,65.00
2023-11-09T05:35:35.029Z,64.88
2023-11-09T05:38:01.968Z,65.22
2023-11-09T05:40:28.767Z,64.22
2023-11-09T05:42:55.601Z,64.07
2023-11-09T05:45:22.445Z,64.83
2023-11-09T05:47:50.010Z,64.85
2023-11-09T05:50:16.852Z,65.07
2023-11-09T05:52:43.790Z,65.17
2023-11-09T05:55:11.652Z,65.32
2023-11-09T05:57:38.649Z,65.51
2023-11-09T06:00:07.114Z,66.10
2023-11-09T06:02:33.996Z,66.41
2023-11-09T06:05:00.924Z,66.14
2023-11-09T06:07:29.013Z,66.60
2023-11-09T06:09:55.886Z,66.49
2023-11-09T06:12:23.060Z,66.78
2023-11-09T06:14:50.668Z,66.73
2023-11-09T06:17:17.510Z,67.02
2023-11-09T06:19:44.393Z,66.18
2023-11-09T06:22:11.265Z,66.33
2023-11-09T06:24:38.958Z,65.62
2023-11-09T06:27:08.250Z,64.30
2023-11-09T06:29:35.241Z,63.42
2023-11-09T06:32:02.128Z,62.55
2023-11-09T06:34:28.985Z,62.73
2023-11-09T06:36:56.907Z,62.57
2023-11-09T06:39:24.095Z,62.40
2023-11-09T06:41:51.070Z,63.79
2023-11-09T06:44:18.830Z,62.99
2023-11-09T06:46:46.006Z,63.35
2023-11-09T06:49:13.312Z,63.71
2023-11-09T06:51:40.250Z,63.46
2023-11-09T06:54:07.318Z,63.50
2023-11-09T06:56:35.765Z,62.91
2023-11-09T06:59:04.490Z,63.13
2023-11-09T07:01:36.476Z,63.08
2023-11-09T07:04:03.734Z,68.50
2023-11-09T07:06:30.591Z,64.71
2023-11-09T07:08:57.424Z,64.95
2023-11-09T07:11:24.354Z,63.40
2023-11-09T07:13:51.211Z,62.29
2023-11-09T07:16:18.090Z,62.41
2023-11-09T07:18:46.555Z,62.46
2023-11-09T07:21:13.508Z,62.56
2023-11-09T07:23:40.556Z,62.47
2023-11-09T07:26:07.666Z,62.39
2023-11-09T07:28:34.527Z,62.56
2023-11-09T07:31:02.392Z,63.02
2023-11-09T07:33:29.522Z,63.14
2023-11-09T07:35:57.735Z,63.75
2023-11-09T07:38:24.693Z,63.60
2023-11-09T07:40:51.489Z,63.45
2023-11-09T07:43:19.511Z,63.36
2023-11-09T07:45:47.003Z,63.31
2023-11-09T07:48:16.739Z,63.21
2023-11-09T07:50:43.646Z,63.48
2023-11-09T07:53:10.487Z,63.43
2023-11-09T07:55:38.129Z,62.58
2023-11-09T07:58:05.714Z,61.81
2023-11-09T08:00:32.643Z,61.80
2023-11-09T08:02:59.605Z,61.61
2023-11-09T08:05:26.630Z,61.07
2023-11-09T08:07:54.707Z,60.57
2023-11-09T08:10:22.986Z,60.45
2023-11-09T08:12:49.998Z,60.85
2023-11-09T08:15:19.708Z,60.46
2023-11-09T08:17:48.895Z,60.10
2023-11-09T08:20:16.861Z,60.46
2023-11-09T08:22:46.436Z,60.44
2023-11-09T08:25:15.619Z,60.14
2023-11-09T08:27:43.085Z,60.39
2023-11-09T08:30:11.253Z,60.48
2023-11-09T08:32:39.327Z,60.62
2023-11-09T08:35:11.246Z,60.78
2023-11-09T08:37:40.169Z,61.54
2023-11-09T08:40:18.122Z,60.97
2023-11-09T08:42:49.279Z,61.73
2023-11-09T08:45:19.117Z,61.05
2023-11-09T08:47:46.914Z,61.20
2023-11-09T08:50:14.493Z,60.80
2023-11-09T08:52:42.150Z,61.19
2023-11-09T08:55:10.285Z,61.16
2023-11-09T08:57:38.455Z,61.34
2023-11-09T09:00:13.074Z,60.95
2023-11-09T09:02:50.518Z,61.06
2023-11-09T09:05:19.751Z,60.89
2023-11-09T09:07:48.334Z,60.91
2023-11-09T09:10:17.499Z,61.04
2023-11-09T09:12:45.411Z,60.89
2023-11-09T09:15:20.428Z,60.60
2023-11-09T09:17:51.138Z,60.63
2023-11-09T09:20:21.445Z,60.95
2023-11-09T09:22:51.375Z,60.76
2023-11-09T09:25:18.206Z,60.95
2023-11-09T09:27:49.833Z,61.00
2023-11-09T09:30:19.976Z,60.85
2023-11-09T09:32:48.450Z,60.63
2023-11-09T09:35:16.700Z,61.02
2023-11-09T09:37:47.352Z,61.20
2023-11-09T09:40:16.620Z,61.06
2023-11-09T09:42:47.303Z,60.96
2023-11-09T09:45:17.780Z,61.26
2023-11-09T09:47:49.963Z,61.35
2023-11-09T09:50:25.211Z,61.28
2023-11-09T09:52:54.071Z,61.21
2023-11-09T09:55:22.368Z,60.94
2023-11-09T09:57:49.456Z,60.56
2023-11-09T10:00:31.722Z,60.25
2023-11-09T10:03:00.781Z,60.15
2023-11-09T10:05:30.611Z,59.27
2023-11-09T10:08:05.912Z,59.39
2023-11-09T10:10:35.609Z,59.45
2023-11-09T10:13:21.186Z,60.38
2023-11-09T10:15:56.465Z,59.33
2023-11-09T10:18:33.471Z,59.77
2023-11-09T10:21:04.831Z,60.06
2023-11-09T10:23:32.066Z,59.94
2023-11-09T10:26:03.716Z,60.09
2023-11-09T10:28:30.793Z,60.07
2023-11-09T10:30:57.653Z,60.52
2023-11-09T10:33:25.273Z,60.66
2023-11-09T10:35:53.955Z,61.18
2023-11-09T10:38:21.898Z,60.78
2023-11-09T10:41:14.240Z,60.79
2023-11-09T10:43:39.447Z,61.13
2023-11-09T10:46:10.650Z,61.13
2023-11-09T10:48:42.472Z,60.61
2023-11-09T10:51:11.059Z,60.73
2023-11-09T10:53:39.248Z,60.80
2023-11-09T10:56:11.909Z,60.86
2023-11-09T10:58:42.203Z,60.69
2023-11-09T11:01:12.754Z,60.64
2023-11-09T11:03:46.816Z,60.52
2023-11-09T11:06:18.728Z,60.31
2023-11-09T11:08:52.579Z,60.31
2023-11-09T11:11:27.474Z,60.07
2023-11-09T11:13:59.527Z,60.17
2023-11-09T11:16:45.445Z,59.81
2023-11-09T11:19:49.071Z,60.33
2023-11-09T11:22:29.304Z,60.38
2023-11-09T11:25:08.021Z,59.87
2023-11-09T11:27:47.401Z,60.04
2023-11-09T11:30:14.732Z,59.80
2023-11-09T11:32:41.559Z,60.18
2023-11-09T11:35:12.222Z,60.24
2023-11-09T11:37:39.044Z,59.96
2023-11-09T11:40:10.029Z,59.58
2023-11-09T11:42:39.421Z,59.83
2023-11-09T11:45:08.938Z,59.84
2023-11-09T11:47:36.103Z,59.96
2023-11-09T11:50:11.382Z,60.01
2023-11-09T11:52:39.129Z,60.65
2023-11-09T11:55:11.851Z,60.37
2023-11-09T11:58:08.386Z,60.77
2023-11-09T12:00:43.207Z,61.24
2023-11-09T12:03:11.667Z,61.06
2023-11-09T12:05:41.813Z,60.85
2023-11-09T12:08:15.427Z,61.21
2023-11-09T12:10:45.788Z,60.66
2023-11-09T12:13:16.097Z,60.76
2023-11-09T12:15:44.737Z,60.48
2023-11-09T12:18:11.807Z,60.31
2023-11-09T12:20:39.784Z,59.61
2023-11-09T12:23:11.827Z,59.65
2023-11-09T12:25:50.680Z,58.95
2023-11-09T12:28:17.684Z,57.62
2023-11-09T12:30:48.940Z,56.84
2023-11-09T12:33:17.748Z,56.62
2023-11-09T12:36:02.482Z,56.39
2023-11-09T12:38:30.072Z,56.22
2023-11-09T12:40:58.376Z,56.31
2023-11-09T12:43:40.532Z,55.15
2023-11-09T12:46:20.674Z,55.22
2023-11-09T12:48:53.505Z,55.54
2023-11-09T12:51:25.635Z,55.58
2023-11-09T12:53:54.080Z,55.57
2023-11-09T12:56:30.332Z,55.57
2023-11-09T12:59:05.133Z,55.50
2023-11-09T13:01:32.818Z,55.96
2023-11-09T13:04:00.437Z,55.88
2023-11-09T13:06:27.809Z,56.43
2023-11-09T13:09:06.179Z,56.57
2023-11-09T13:11:43.576Z,56.98
2023-11-09T13:14:17.641Z,56.75
2023-11-09T13:16:45.998Z,56.76
2023-11-09T13:19:27.473Z,56.57
2023-11-09T13:21:54.524Z,56.54
2023-11-09T13:24:27.784Z,56.56
2023-11-09T13:26:55.082Z,56.12
2023-11-09T13:29:24.088Z,56.09
2023-11-09T13:31:57.505Z,55.70
2023-11-09T13:34:37.621Z,55.59
2023-11-09T13:37:05.968Z,55.64
2023-11-09T13:39:52.300Z,55.46
2023-11-09T13:42:35.801Z,55.10
2023-11-09T13:45:08.461Z,54.86
2023-11-09T13:47:36.003Z,59.78
2023-11-09T13:50:05.512Z,60.19
2023-11-09T13:52:46.969Z,60.40
2023-11-09T13:55:33.891Z,60.87
2023-11-09T13:58:00.999Z,61.30
2023-11-09T14:00:37.744Z,60.58
2023-11-09T14:03:06.670Z,61.01
2023-11-09T14:05:33.698Z,60.79
2023-11-09T14:08:04.075Z,60.71
2023-11-09T14:10:30.922Z,60.89
2023-11-09T14:13:10.471Z,60.65
2023-11-09T14:15:50.336Z,60.32
2023-11-09T14:18:26.933Z,59.82
2023-11-09T14:21:16.383Z,56.02
2023-11-09T14:23:43.201Z,55.47
2023-11-09T14:26:10.438Z,54.39
2023-11-09T14:28:37.288Z,54.37
2023-11-09T14:31:09.140Z,53.91
2023-11-09T14:33:37.245Z,54.39
2023-11-09T14:36:07.403Z,53.87
2023-11-09T14:38:34.399Z,53.63
2023-11-09T14:41:01.470Z,53.50
2023-11-09T14:43:30.865Z,53.73
2023-11-09T14:46:06.225Z,53.85
2023-11-09T14:48:36.515Z,53.93
2023-11-09T14:51:04.200Z,54.37
2023-11-09T14:53:36.819Z,54.30
2023-11-09T14:56:07.568Z,54.50
2023-11-09T14:58:35.704Z,54.54
2023-11-09T15:01:04.655Z,54.61
2023-11-09T15:03:35.989Z,54.42
2023-11-09T15:06:11.655Z,54.27
2023-11-09T15:08:39.930Z,54.50
2023-11-09T15:11:07.876Z,55.00
2023-11-09T15:13:35.946Z,55.19
2023-11-09T15:16:05.738Z,55.15
2023-11-09T15:18:36.368Z,55.39
2023-11-09T15:21:06.648Z,55.72
2023-11-09T15:23:34.342Z,55.87
2023-11-09T15:26:01.806Z,56.03
2023-11-09T15:28:29.713Z,55.92
2023-11-09T15:30:56.757Z,56.49
2023-11-09T15:33:24.045Z,56.70
2023-11-09T15:35:51.664Z,56.62
2023-11-09T15:38:18.923Z,56.62
2023-11-09T15:41:16.174Z,56.22
2023-11-09T15:43:39.048Z,56.46
2023-11-09T15:46:13.518Z,55.78
2023-11-09T15:48:41.922Z,56.52
2023-11-09T15:51:09.915Z,56.55
2023-11-09T15:53:38.573Z,56.44
2023-11-09T15:56:06.607Z,56.22
2023-11-09T15:58:33.574Z,56.27
2023-11-09T16:01:02.481Z,56.13
2023-11-09T16:03:32.162Z,56.06
2023-11-09T16:05:59.222Z,55.83
2023-11-09T16:08:27.315Z,55.90
2023-11-09T16:10:55.312Z,55.63
2023-11-09T16:13:22.321Z,55.76
2023-11-09T16:15:49.990Z,55.88
2023-11-09T16:18:17.101Z,55.84
2023-11-09T16:20:44.129Z,56.16
2023-11-09T16:23:12.675Z,56.32
2023-11-09T16:25:45.080Z,56.34
2023-11-09T16:28:14.014Z,56.58
2023-11-09T16:30:42.099Z,56.78
2023-11-09T16:33:09.753Z,56.85
2023-11-09T16:35:37.300Z,57.55
2023-11-09T16:38:05.298Z,57.81
2023-11-09T16:40:32.453Z,57.72
2023-11-09T16:42:59.359Z,57.98
2023-11-09T16:45:26.221Z,58.19
2023-11-09T16:47:56.084Z,58.05
2023-11-09T16:50:23.136Z,58.22
2023-11-09T16:52:50.564Z,58.16
2023-11-09T16:55:17.581Z,58.59
2023-11-09T16:57:46.478Z,58.30
2023-11-09T17:00:24.718Z,57.85
2023-11-09T17:02:53.038Z,57.89
2023-11-09T17:05:20.443Z,57.99
2023-11-09T17:07:47.822Z,58.05
2023-11-09T17:10:15.577Z,58.17
2023-11-09T17:12:43.320Z,58.30
2023-11-09T17:15:12.051Z,58.29
2023-11-09T17:17:42.562Z,58.28
2023-11-09T17:20:11.794Z,58.35
2023-11-09T17:22:40.194Z,58.98
2023-11-09T17:25:09.292Z,58.98
2023-11-09T17:27:36.499Z,59.19
2023-11-09T17:30:11.193Z,59.19
2023-11-09T17:32:40.057Z,59.26
2023-11-09T17:35:08.248Z,59.25
2023-11-09T17:37:35.338Z,59.00
2023-11-09T17:40:04.667Z,59.36
2023-11-09T17:42:32.585Z,59.38
2023-11-09T17:44:59.477Z,59.87
2023-11-09T17:47:26.431Z,59.60
2023-11-09T17:49:53.441Z,59.71
2023-11-09T17:52:20.691Z,59.92
2023-11-09T17:54:47.600Z,60.26
2023-11-09T17:57:14.827Z,60.17
2023-11-09T17:59:44.751Z,60.09
2023-11-09T18:02:13.323Z,60.00
2023-11-09T18:04:41.929Z,59.93
2023-11-09T18:07:09.577Z,60.05
2023-11-09T18:09:38.680Z,60.22
2023-11-09T18:12:06.160Z,60.40
2023-11-09T18:14:33.952Z,60.35
2023-11-09T18:17:02.441Z,60.56
2023-11-09T18:19:29.361Z,60.71
2023-11-09T18:21:58.659Z,60.76
2023-11-09T18:24:25.656Z,60.76
2023-11-09T18:26:52.493Z,60.77
2023-11-09T18:29:20.363Z,60.80
2023-11-09T18:31:47.357Z,61.34
2023-11-09T18:34:14.180Z,61.62
2023-11-09T18:36:40.954Z,61.43
2023-11-09T18:39:07.736Z,61.61
2023-11-09T18:41:35.165Z,61.59
2023-11-09T18:44:02.903Z,61.60
2023-11-09T18:46:31.661Z,61.28
2023-11-09T18:48:58.522Z,61.64
2023-11-09T18:51:28.536Z,61.25
2023-11-09T18:53:55.462Z,61.35
2023-11-09T18:56:22.472Z,62.03
2023-11-09T18:58:49.339Z,62.00
2023-11-09T19:01:16.325Z,61.97
2023-11-09T19:06:14.840Z,61.84
2023-11-09T19:08:41.720Z,61.71
2023-11-09T19:11:13.377Z,61.78
2023-11-09T19:13:40.329Z,61.94
2023-11-09T19:16:07.675Z,62.11
2023-11-09T19:18:35.369Z,62.24
2023-11-09T19:23:32.210Z,62.36
2023-11-09T19:25:59.297Z,62.52
2023-11-09T19:28:28.897Z,63.23
2023-11-09T19:30:59.724Z,62.71
2023-11-09T19:33:27.272Z,62.81
2023-11-09T19:35:54.779Z,62.64
2023-11-09T19:38:21.811Z,62.70
2023-11-09T19:40:49.614Z,62.53
2023-11-09T19:43:16.800Z,62.95
2023-11-09T19:45:45.270Z,62.87
2023-11-09T19:48:13.827Z,63.11
2023-11-09T19:50:42.267Z,63.11
2023-11-09T19:53:12.268Z,63.03
2023-11-09T19:55:39.213Z,63.07
2023-11-09T19:58:06.591Z,63.05
2023-11-09T20:00:36.620Z,63.10
2023-11-09T20:03:07.534Z,63.08
2023-11-09T20:05:35.935Z,63.19
2023-11-09T20:08:03.485Z,63.15
2023-11-09T20:10:33.536Z,63.55
2023-11-09T20:13:03.221Z,63.34
2023-11-09T20:15:32.467Z,63.16
2023-11-09T20:18:01.306Z,63.22
2023-11-09T20:20:30.080Z,63.07
2023-11-09T20:23:00.306Z,63.18
2023-11-09T20:25:27.452Z,63.16
2023-11-09T20:27:57.323Z,63.43
2023-11-09T20:30:24.325Z,63.54
2023-11-09T20:32:51.606Z,63.68
2023-11-09T20:35:18.783Z,63.48
2023-11-09T20:37:45.958Z,63.40
2023-11-09T20:40:16.778Z,63.55
2023-11-09T20:42:44.565Z,63.41
2023-11-09T20:45:11.801Z,63.35
2023-11-09T20:47:38.997Z,63.34
2023-11-09T20:50:08.746Z,63.15
2023-11-09T20:52:35.631Z,63.31
2023-11-09T20:55:02.641Z,63.35
2023-11-09T20:57:30.662Z,63.49
2023-11-09T21:00:01.704Z,63.04
2023-11-09T21:02:31.611Z,62.84
2023-11-09T21:04:58.574Z,62.96
2023-11-09T21:07:25.382Z,63.04
2023-11-09T21:09:52.330Z,62.80
2023-11-09T21:12:21.607Z,62.75
2023-11-09T21:14:51.945Z,62.60
2023-11-09T21:17:18.802Z,62.46
2023-11-09T21:19:45.636Z,62.39
2023-11-09T21:22:14.467Z,62.17
2023-11-09T21:24:41.645Z,62.07
2023-11-09T21:27:15.784Z,62.09
2023-11-09T21:29:45.883Z,62.32
2023-11-09T21:32:12.875Z,62.53
2023-11-09T21:34:41.313Z,62.53
2023-11-09T21:37:09.539Z,62.54
2023-11-09T21:39:39.550Z,62.89
2023-11-09T21:42:11.953Z,62.75
2023-11-09T21:44:39.394Z,62.92
2023-11-09T21:47:06.626Z,62.64
2023-11-09T21:49:35.775Z,62.84
2023-11-09T21:52:04.526Z,62.62
2023-11-09T21:54:31.350Z,62.32
2023-11-09T21:57:02.134Z,62.06
2023-11-09T21:59:30.580Z,62.48
2023-11-09T22:01:57.768Z,62.56
2023-11-09T22:04:24.890Z,62.58
2023-11-09T22:06:54.205Z,62.28
2023-11-09T22:09:24.593Z,62.33
2023-11-09T22:11:51.972Z,62.46
2023-11-09T22:14:21.470Z,62.20
2023-11-09T22:16:48.299Z,62.18
2023-11-09T22:19:15.201Z,62.59
2023-11-09T22:21:42.064Z,62.95
2023-11-09T22:24:11.641Z,62.50
2023-11-09T22:26:40.166Z,62.34
2023-11-09T22:29:07.454Z,62.28
2023-11-09T22:31:34.423Z,62.03
2023-11-09T22:34:01.510Z,62.01
2023-11-09T22:36:28.425Z,62.19
2023-11-09T22:38:55.292Z,61.83
2023-11-09T22:41:25.169Z,61.93
2023-11-09T22:43:52.015Z,62.20
2023-11-09T22:46:19.002Z,61.46
2023-11-09T22:48:46.166Z,60.93
2023-11-09T22:51:13.208Z,60.85
2023-11-09T22:53:40.164Z,60.54
2023-11-09T22:56:07.554Z,60.74
2023-11-09T22:58:34.595Z,61.16
2023-11-09T23:01:04.995Z,61.47
2023-11-09T23:03:33.358Z,61.54
2023-11-09T23:06:01.321Z,61.64
2023-11-09T23:08:28.398Z,61.17
2023-11-09T23:10:55.265Z,61.24
2023-11-09T23:13:22.101Z,61.22
2023-11-09T23:15:48.969Z,61.22
2023-11-09T23:18:16.428Z,61.58
2023-11-09T23:20:45.197Z,61.82
2023-11-09T23:23:13.131Z,61.82
2023-11-09T23:25:40.282Z,62.21
2023-11-09T23:28:07.297Z,62.28
2023-11-09T23:30:34.270Z,62.28
2023-11-09T23:33:01.229Z,62.01
2023-11-09T23:35:29.746Z,61.66
2023-11-09T23:37:57.232Z,61.51
2023-11-09T23:40:24.114Z,61.43
2023-11-09T23:42:51.579Z,61.20
2023-11-09T23:45:19.065Z,61.25
2023-11-09T23:47:46.613Z,61.52
2023-11-09T23:50:13.722Z,61.29
2023-11-09T23:52:41.267Z,61.25
2023-11-09T23:55:08.620Z,61.42
2023-11-09T23:57:35.959Z,61.17
